sensor_id;sensor_type;location;lat;lon;timestamp;noise_LAeq;noise_LA_min;noise_LA_max;noise_LA01;noise_LA95
76261;Laerm;65076;52.362;6.588;2023-11-18T00:02:12;40.67;36.22;57.00;;
76261;Laerm;65076;52.362;6.588;2023-11-18T00:07:21;49.13;36.20;61.87;;
76261;Laerm;65076;52.362;6.588;2023-11-18T00:09:54;48.42;35.01;61.85;;
76261;Laerm;65076;52.362;6.588;2023-11-18T00:17:28;45.54;34.11;62.26;;
76261;Laerm;65076;52.362;6.588;2023-11-18T00:22:30;41.39;34.98;54.12;;
76261;Laerm;65076;52.362;6.588;2023-11-18T00:27:31;48.23;34.74;62.62;;
76261;Laerm;65076;52.362;6.588;2023-11-18T00:30:05;39.87;34.86;49.63;;
76261;Laerm;65076;52.362;6.588;2023-11-18T00:35:13;39.14;34.68;51.61;;
76261;Laerm;65076;52.362;6.588;2023-11-18T00:40:13;49.49;34.75;67.07;;
76261;Laerm;65076;52.362;6.588;2023-11-18T00:42:48;44.08;34.58;60.19;;
76261;Laerm;65076;52.362;6.588;2023-11-18T00:50:24;58.64;33.96;76.20;;
76261;Laerm;65076;52.362;6.588;2023-11-18T01:00:26;42.32;34.61;58.74;;
76261;Laerm;65076;52.362;6.588;2023-11-18T01:05:29;46.98;34.91;63.67;;
76261;Laerm;65076;52.362;6.588;2023-11-18T01:10:37;39.46;34.05;62.58;;
76261;Laerm;65076;52.362;6.588;2023-11-18T01:13:21;37.30;33.78;43.22;;
76261;Laerm;65076;52.362;6.588;2023-11-18T01:21:03;37.59;34.14;42.97;;
76261;Laerm;65076;52.362;6.588;2023-11-18T01:26:12;36.50;33.64;40.79;;
76261;Laerm;65076;52.362;6.588;2023-11-18T01:31:11;35.66;33.53;41.83;;
76261;Laerm;65076;52.362;6.588;2023-11-18T01:36:16;37.19;33.76;44.31;;
76261;Laerm;65076;52.362;6.588;2023-11-18T01:41:22;44.31;34.68;62.36;;
76261;Laerm;65076;52.362;6.588;2023-11-18T01:46:26;46.57;33.90;63.75;;
76261;Laerm;65076;52.362;6.588;2023-11-18T01:48:59;36.24;34.16;42.02;;
76261;Laerm;65076;52.362;6.588;2023-11-18T01:56:38;36.95;34.23;43.62;;
76261;Laerm;65076;52.362;6.588;2023-11-18T02:01:49;35.62;33.71;44.94;;
76261;Laerm;65076;52.362;6.588;2023-11-18T02:06:55;38.39;33.21;51.33;;
76261;Laerm;65076;52.362;6.588;2023-11-18T02:12:11;37.05;34.68;42.44;;
76261;Laerm;65076;52.362;6.588;2023-11-18T02:30:25;38.08;34.96;43.53;;
76261;Laerm;65076;52.362;6.588;2023-11-18T02:33:03;37.44;34.38;42.64;;
76261;Laerm;65076;52.362;6.588;2023-11-18T02:38:07;39.36;35.79;47.67;;
76261;Laerm;65076;52.362;6.588;2023-11-18T02:43:13;37.64;35.16;43.68;;
76261;Laerm;65076;52.362;6.588;2023-11-18T02:48:22;36.44;33.82;40.52;;
76261;Laerm;65076;52.362;6.588;2023-11-18T02:53:25;45.38;35.34;63.55;;
76261;Laerm;65076;52.362;6.588;2023-11-18T03:01:00;38.77;35.36;49.68;;
76261;Laerm;65076;52.362;6.588;2023-11-18T03:11:11;36.91;35.37;40.40;;
76261;Laerm;65076;52.362;6.588;2023-11-18T03:16:15;36.34;34.79;40.31;;
76261;Laerm;65076;52.362;6.588;2023-11-18T03:21:14;37.03;35.41;40.12;;
76261;Laerm;65076;52.362;6.588;2023-11-18T03:23:49;51.21;35.01;67.18;;
76261;Laerm;65076;52.362;6.588;2023-11-18T03:31:29;38.16;35.59;43.85;;
76261;Laerm;65076;52.362;6.588;2023-11-18T03:36:31;38.50;35.90;43.50;;
76261;Laerm;65076;52.362;6.588;2023-11-18T03:39:05;37.66;34.73;41.17;;
76261;Laerm;65076;52.362;6.588;2023-11-18T03:46:44;37.44;34.95;41.07;;
76261;Laerm;65076;52.362;6.588;2023-11-18T03:51:48;37.42;34.96;43.96;;
76261;Laerm;65076;52.362;6.588;2023-11-18T03:56:49;45.79;35.66;62.29;;
76261;Laerm;65076;52.362;6.588;2023-11-18T03:59:26;39.27;36.38;43.41;;
76261;Laerm;65076;52.362;6.588;2023-11-18T04:04:34;48.18;34.85;65.96;;
76261;Laerm;65076;52.362;6.588;2023-11-18T04:07:06;37.01;34.36;42.61;;
76261;Laerm;65076;52.362;6.588;2023-11-18T04:09:52;37.55;35.03;40.19;;
76261;Laerm;65076;52.362;6.588;2023-11-18T04:12:27;38.89;35.99;41.91;;
76261;Laerm;65076;52.362;6.588;2023-11-18T04:17:32;43.09;34.28;53.63;;
76261;Laerm;65076;52.362;6.588;2023-11-18T04:22:33;38.39;35.96;42.45;;
76261;Laerm;65076;52.362;6.588;2023-11-18T04:27:37;37.44;34.58;42.55;;
76261;Laerm;65076;52.362;6.588;2023-11-18T04:35:46;36.63;34.56;41.73;;
76261;Laerm;65076;52.362;6.588;2023-11-18T04:38:19;42.68;35.61;58.13;;
76261;Laerm;65076;52.362;6.588;2023-11-18T04:48:33;37.52;35.41;41.41;;
76261;Laerm;65076;52.362;6.588;2023-11-18T04:53:33;41.71;35.02;54.50;;
76261;Laerm;65076;52.362;6.588;2023-11-18T04:56:10;44.79;35.07;60.94;;
76261;Laerm;65076;52.362;6.588;2023-11-18T05:03:57;38.15;35.18;52.94;;
76261;Laerm;65076;52.362;6.588;2023-11-18T05:08:58;44.45;35.85;58.34;;
76261;Laerm;65076;52.362;6.588;2023-11-18T05:11:34;52.02;36.98;63.89;;
76261;Laerm;65076;52.362;6.588;2023-11-18T05:19:14;42.83;36.16;58.67;;
76261;Laerm;65076;52.362;6.588;2023-11-18T05:26:44;53.06;36.78;65.22;;
76261;Laerm;65076;52.362;6.588;2023-11-18T05:34:23;45.45;38.31;55.81;;
76261;Laerm;65076;52.362;6.588;2023-11-18T05:41:54;51.45;40.40;61.66;;
76261;Laerm;65076;52.362;6.588;2023-11-18T05:49:31;50.60;35.65;66.61;;
76261;Laerm;65076;52.362;6.588;2023-11-18T05:57:10;48.26;35.76;62.88;;
76261;Laerm;65076;52.362;6.588;2023-11-18T05:59:44;59.92;37.38;85.08;;
76261;Laerm;65076;52.362;6.588;2023-11-18T06:04:53;57.17;38.29;68.90;;
76261;Laerm;65076;52.362;6.588;2023-11-18T06:10:07;41.24;37.08;52.23;;
76261;Laerm;65076;52.362;6.588;2023-11-18T06:15:12;48.37;36.64;62.12;;
76261;Laerm;65076;52.362;6.588;2023-11-18T06:20:22;53.20;36.82;64.96;;
76261;Laerm;65076;52.362;6.588;2023-11-18T06:27:51;50.60;37.37;64.66;;
76261;Laerm;65076;52.362;6.588;2023-11-18T06:30:25;54.03;36.98;71.53;;
76261;Laerm;65076;52.362;6.588;2023-11-18T06:37:54;54.08;37.36;69.37;;
76261;Laerm;65076;52.362;6.588;2023-11-18T06:45:30;49.31;39.09;59.31;;
76261;Laerm;65076;52.362;6.588;2023-11-18T06:50:30;57.53;41.76;66.48;;
76261;Laerm;65076;52.362;6.588;2023-11-18T06:53:05;61.05;43.94;74.27;;
76261;Laerm;65076;52.362;6.588;2023-11-18T07:00:37;50.14;37.77;61.72;;
76261;Laerm;65076;52.362;6.588;2023-11-18T07:05:38;57.18;43.96;65.12;;
76261;Laerm;65076;52.362;6.588;2023-11-18T07:08:19;53.78;43.68;64.05;;
76261;Laerm;65076;52.362;6.588;2023-11-18T07:11:03;50.32;43.24;60.78;;
76261;Laerm;65076;52.362;6.588;2023-11-18T07:18:35;50.57;38.84;62.93;;
76261;Laerm;65076;52.362;6.588;2023-11-18T07:21:07;49.05;38.74;60.19;;
76261;Laerm;65076;52.362;6.588;2023-11-18T07:31:10;54.93;45.65;63.00;;
76261;Laerm;65076;52.362;6.588;2023-11-18T07:38:39;54.63;39.19;68.34;;
76261;Laerm;65076;52.362;6.588;2023-11-18T07:43:45;59.87;40.17;77.44;;
76261;Laerm;65076;52.362;6.588;2023-11-18T07:48:59;55.48;39.18;66.66;;
76261;Laerm;65076;52.362;6.588;2023-11-18T07:54:02;58.29;41.42;75.87;;
76261;Laerm;65076;52.362;6.588;2023-11-18T07:59:03;51.64;39.74;62.08;;
76261;Laerm;65076;52.362;6.588;2023-11-18T08:01:41;54.36;43.07;64.55;;
76261;Laerm;65076;52.362;6.588;2023-11-18T08:06:53;52.73;46.50;61.87;;
76261;Laerm;65076;52.362;6.588;2023-11-18T08:12:00;55.48;47.37;66.33;;
76261;Laerm;65076;52.362;6.588;2023-11-18T08:17:06;54.71;40.12;64.13;;
76261;Laerm;65076;52.362;6.588;2023-11-18T08:24:40;58.25;42.73;75.72;;
76261;Laerm;65076;52.362;6.588;2023-11-18T08:29:46;55.45;44.69;64.42;;
76261;Laerm;65076;52.362;6.588;2023-11-18T08:32:21;53.22;45.11;62.00;;
76261;Laerm;65076;52.362;6.588;2023-11-18T08:39:58;51.35;42.54;62.08;;
76261;Laerm;65076;52.362;6.588;2023-11-18T08:44:55;56.23;44.91;65.72;;
76261;Laerm;65076;52.362;6.588;2023-11-18T08:49:54;55.27;42.60;65.92;;
76261;Laerm;65076;52.362;6.588;2023-11-18T08:57:26;56.65;46.72;69.00;;
76261;Laerm;65076;52.362;6.588;2023-11-18T09:05:16;55.83;45.92;66.44;;
76261;Laerm;65076;52.362;6.588;2023-11-18T09:10:17;55.01;46.67;66.05;;
76261;Laerm;65076;52.362;6.588;2023-11-18T09:15:23;55.91;44.75;67.31;;
76261;Laerm;65076;52.362;6.588;2023-11-18T09:22:56;55.34;46.47;65.97;;
76261;Laerm;65076;52.362;6.588;2023-11-18T09:25:32;58.20;45.04;72.95;;
76261;Laerm;65076;52.362;6.588;2023-11-18T09:30:45;57.41;48.88;67.13;;
76261;Laerm;65076;52.362;6.588;2023-11-18T09:35:53;58.32;47.79;66.70;;
76261;Laerm;65076;52.362;6.588;2023-11-18T09:40:57;55.01;44.72;70.11;;
76261;Laerm;65076;52.362;6.588;2023-11-18T09:43:46;59.52;47.85;74.67;;
76261;Laerm;65076;52.362;6.588;2023-11-18T09:56:59;55.27;46.24;65.84;;
76261;Laerm;65076;52.362;6.588;2023-11-18T10:02:10;57.68;45.59;72.69;;
76261;Laerm;65076;52.362;6.588;2023-11-18T10:07:18;57.64;47.95;66.50;;
76261;Laerm;65076;52.362;6.588;2023-11-18T10:14:55;59.55;48.33;74.84;;
76261;Laerm;65076;52.362;6.588;2023-11-18T10:17:29;57.06;46.78;66.28;;
76261;Laerm;65076;52.362;6.588;2023-11-18T10:25:04;59.02;47.07;69.33;;
76261;Laerm;65076;52.362;6.588;2023-11-18T10:27:45;56.81;46.67;65.04;;
76261;Laerm;65076;52.362;6.588;2023-11-18T10:32:59;55.57;47.00;69.17;;
76261;Laerm;65076;52.362;6.588;2023-11-18T10:40:34;57.44;48.82;64.84;;
76261;Laerm;65076;52.362;6.588;2023-11-18T10:48:11;55.24;44.12;67.03;;
76261;Laerm;65076;52.362;6.588;2023-11-18T10:55:45;57.39;47.57;67.62;;
76261;Laerm;65076;52.362;6.588;2023-11-18T11:00:52;57.75;48.58;66.28;;
76261;Laerm;65076;52.362;6.588;2023-11-18T11:05:59;53.70;47.43;63.77;;
76261;Laerm;65076;52.362;6.588;2023-11-18T11:11:06;57.58;48.52;65.96;;
76261;Laerm;65076;52.362;6.588;2023-11-18T11:18:48;55.92;44.69;67.09;;
76261;Laerm;65076;52.362;6.588;2023-11-18T11:24:04;59.92;46.19;77.14;;
76261;Laerm;65076;52.362;6.588;2023-11-18T11:29:25;56.17;46.16;66.90;;
76261;Laerm;65076;52.362;6.588;2023-11-18T11:36:59;57.73;52.79;65.14;;
76261;Laerm;65076;52.362;6.588;2023-11-18T11:42:06;59.21;47.76;76.06;;
76261;Laerm;65076;52.362;6.588;2023-11-18T11:47:15;54.67;45.88;64.27;;
76261;Laerm;65076;52.362;6.588;2023-11-18T11:52:28;56.56;45.96;65.44;;
76261;Laerm;65076;52.362;6.588;2023-11-18T12:00:17;57.36;48.76;65.03;;
76261;Laerm;65076;52.362;6.588;2023-11-18T12:05:30;57.89;47.92;68.27;;
76261;Laerm;65076;52.362;6.588;2023-11-18T12:08:10;60.31;47.43;70.15;;
76261;Laerm;65076;52.362;6.588;2023-11-18T12:10:51;56.58;45.63;65.39;;
76261;Laerm;65076;52.362;6.588;2023-11-18T12:18:30;58.27;45.32;66.84;;
76261;Laerm;65076;52.362;6.588;2023-11-18T12:23:31;58.07;46.65;69.36;;
76261;Laerm;65076;52.362;6.588;2023-11-18T12:26:40;60.44;47.09;74.85;;
76261;Laerm;65076;52.362;6.588;2023-11-18T12:34:55;56.41;50.93;77.63;;
76261;Laerm;65076;52.362;6.588;2023-11-18T12:42:58;60.33;48.63;76.24;;
76261;Laerm;65076;52.362;6.588;2023-11-18T12:48:07;60.09;48.29;75.29;;
76261;Laerm;65076;52.362;6.588;2023-11-18T12:53:13;61.54;49.74;78.61;;
76261;Laerm;65076;52.362;6.588;2023-11-18T13:00:51;60.02;50.23;78.72;;
76261;Laerm;65076;52.362;6.588;2023-11-18T13:03:33;63.12;50.42;77.81;;
76261;Laerm;65076;52.362;6.588;2023-11-18T13:08:44;61.31;51.10;75.81;;
76261;Laerm;65076;52.362;6.588;2023-11-18T13:18:48;60.33;48.63;75.44;;
76261;Laerm;65076;52.362;6.588;2023-11-18T13:23:53;60.51;49.57;79.11;;
76261;Laerm;65076;52.362;6.588;2023-11-18T13:28:54;60.94;50.18;77.07;;
76261;Laerm;65076;52.362;6.588;2023-11-18T13:31:30;60.84;49.02;78.22;;
76261;Laerm;65076;52.362;6.588;2023-11-18T13:41:50;60.90;49.80;76.09;;
76261;Laerm;65076;52.362;6.588;2023-11-18T13:46:53;61.04;48.16;75.78;;
76261;Laerm;65076;52.362;6.588;2023-11-18T13:54:24;61.48;50.10;78.89;;
76261;Laerm;65076;52.362;6.588;2023-11-18T13:59:33;61.62;49.32;79.55;;
76261;Laerm;65076;52.362;6.588;2023-11-18T14:02:07;58.00;48.04;77.89;;
76261;Laerm;65076;52.362;6.588;2023-11-18T14:04:42;59.10;49.20;76.94;;
76261;Laerm;65076;52.362;6.588;2023-11-18T14:14:50;61.27;48.27;72.64;;
76261;Laerm;65076;52.362;6.588;2023-11-18T14:17:32;59.42;47.45;76.32;;
76261;Laerm;65076;52.362;6.588;2023-11-18T14:22:52;63.35;49.83;80.74;;
76261;Laerm;65076;52.362;6.588;2023-11-18T14:30:24;61.81;50.83;78.42;;
76261;Laerm;65076;52.362;6.588;2023-11-18T14:37:58;60.80;50.32;79.29;;
76261;Laerm;65076;52.362;6.588;2023-11-18T14:40:33;59.88;46.85;77.38;;
76261;Laerm;65076;52.362;6.588;2023-11-18T14:45:49;62.41;47.38;77.23;;
76261;Laerm;65076;52.362;6.588;2023-11-18T14:55:50;62.41;50.55;80.64;;
76261;Laerm;65076;52.362;6.588;2023-11-18T15:03:22;60.27;50.32;76.93;;
76261;Laerm;65076;52.362;6.588;2023-11-18T15:08:21;60.21;49.37;77.38;;
76261;Laerm;65076;52.362;6.588;2023-11-18T15:10:57;62.07;49.82;77.89;;
76261;Laerm;65076;52.362;6.588;2023-11-18T15:18:33;59.72;47.83;77.49;;
76261;Laerm;65076;52.362;6.588;2023-11-18T15:21:07;58.44;47.80;77.09;;
76261;Laerm;65076;52.362;6.588;2023-11-18T15:31:42;61.72;50.54;77.01;;
76261;Laerm;65076;52.362;6.588;2023-11-18T15:34:18;58.96;47.84;76.82;;
76261;Laerm;65076;52.362;6.588;2023-11-18T15:41:58;61.11;48.43;80.00;;
76261;Laerm;65076;52.362;6.588;2023-11-18T15:49:40;60.53;50.11;80.82;;
76261;Laerm;65076;52.362;6.588;2023-11-18T15:54:50;61.35;48.61;76.72;;
76261;Laerm;65076;52.362;6.588;2023-11-18T15:57:22;62.05;49.74;76.92;;
76261;Laerm;65076;52.362;6.588;2023-11-18T16:07:31;60.87;49.26;77.00;;
76261;Laerm;65076;52.362;6.588;2023-11-18T16:12:32;59.56;47.42;76.03;;
76261;Laerm;65076;52.362;6.588;2023-11-18T16:17:41;59.39;47.96;77.86;;
76261;Laerm;65076;52.362;6.588;2023-11-18T16:20:17;60.45;47.36;78.62;;
76261;Laerm;65076;52.362;6.588;2023-11-18T16:27:56;56.47;45.83;71.99;;
76261;Laerm;65076;52.362;6.588;2023-11-18T16:32:59;57.18;47.97;79.87;;
76261;Laerm;65076;52.362;6.588;2023-11-18T16:35:38;57.61;47.11;74.59;;
76261;Laerm;65076;52.362;6.588;2023-11-18T16:43:12;60.89;46.39;76.28;;
76261;Laerm;65076;52.362;6.588;2023-11-18T16:48:13;59.41;45.44;76.50;;
76261;Laerm;65076;52.362;6.588;2023-11-18T16:50:46;58.51;45.72;77.81;;
76261;Laerm;65076;52.362;6.588;2023-11-18T17:00:48;57.13;45.64;76.47;;
76261;Laerm;65076;52.362;6.588;2023-11-18T17:05:53;57.53;46.98;76.27;;
76261;Laerm;65076;52.362;6.588;2023-11-18T17:18:39;60.40;45.39;82.42;;
76261;Laerm;65076;52.362;6.588;2023-11-18T17:26:14;60.41;46.93;71.36;;
76261;Laerm;65076;52.362;6.588;2023-11-18T17:31:18;57.72;45.52;73.69;;
76261;Laerm;65076;52.362;6.588;2023-11-18T17:36:23;58.59;43.42;73.67;;
76261;Laerm;65076;52.362;6.588;2023-11-18T17:38:55;55.68;42.62;75.94;;
76261;Laerm;65076;52.362;6.588;2023-11-18T17:46:24;56.51;43.54;76.23;;
76261;Laerm;65076;52.362;6.588;2023-11-18T17:48:57;55.89;43.23;77.60;;
76261;Laerm;65076;52.362;6.588;2023-11-18T17:54:05;56.89;45.09;75.78;;
76261;Laerm;65076;52.362;6.588;2023-11-18T17:59:05;56.70;44.15;75.87;;
76261;Laerm;65076;52.362;6.588;2023-11-18T18:06:39;56.14;44.08;71.39;;
76261;Laerm;65076;52.362;6.588;2023-11-18T18:09:21;58.47;44.53;77.45;;
76261;Laerm;65076;52.362;6.588;2023-11-18T18:16:59;53.29;42.87;66.61;;
76261;Laerm;65076;52.362;6.588;2023-11-18T18:19:33;53.68;42.67;67.83;;
76261;Laerm;65076;52.362;6.588;2023-11-18T18:29:47;56.73;42.69;75.84;;
76261;Laerm;65076;52.362;6.588;2023-11-18T18:37:15;59.12;44.90;77.25;;
76261;Laerm;65076;52.362;6.588;2023-11-18T18:39:50;55.98;44.03;67.53;;
76261;Laerm;65076;52.362;6.588;2023-11-18T18:42:25;59.36;44.33;76.99;;
76261;Laerm;65076;52.362;6.588;2023-11-18T18:50:06;55.82;43.95;66.32;;
76261;Laerm;65076;52.362;6.588;2023-11-18T18:52:43;55.12;42.70;69.62;;
76261;Laerm;65076;52.362;6.588;2023-11-18T18:55:19;59.78;42.87;76.63;;
76261;Laerm;65076;52.362;6.588;2023-11-18T19:02:56;56.03;46.37;65.80;;
76261;Laerm;65076;52.362;6.588;2023-11-18T19:10:32;56.48;43.60;68.26;;
76261;Laerm;65076;52.362;6.588;2023-11-18T19:13:06;59.94;44.83;75.83;;
76261;Laerm;65076;52.362;6.588;2023-11-18T19:18:13;53.76;42.30;66.15;;
76261;Laerm;65076;52.362;6.588;2023-11-18T19:23:30;56.17;43.27;73.99;;
76261;Laerm;65076;52.362;6.588;2023-11-18T19:28:36;59.11;44.32;71.69;;
76261;Laerm;65076;52.362;6.588;2023-11-18T19:33:40;55.83;42.28;64.27;;
76261;Laerm;65076;52.362;6.588;2023-11-18T19:46:35;57.00;43.60;72.54;;
76261;Laerm;65076;52.362;6.588;2023-11-18T19:51:36;47.50;38.63;61.36;;
76261;Laerm;65076;52.362;6.588;2023-11-18T19:56:43;54.96;40.76;68.08;;
76261;Laerm;65076;52.362;6.588;2023-11-18T19:59:17;54.62;43.18;67.18;;
76261;Laerm;65076;52.362;6.588;2023-11-18T20:01:53;50.03;41.47;62.90;;
76261;Laerm;65076;52.362;6.588;2023-11-18T20:04:29;58.16;40.48;84.76;;
76261;Laerm;65076;52.362;6.588;2023-11-18T20:09:33;55.64;39.94;69.75;;
76261;Laerm;65076;52.362;6.588;2023-11-18T20:17:05;56.98;40.01;68.53;;
76261;Laerm;65076;52.362;6.588;2023-11-18T20:22:09;51.83;39.50;66.57;;
76261;Laerm;65076;52.362;6.588;2023-11-18T20:24:43;57.31;39.97;72.54;;
76261;Laerm;65076;52.362;6.588;2023-11-18T20:32:22;56.66;43.59;68.08;;
76261;Laerm;65076;52.362;6.588;2023-11-18T20:37:24;52.10;49.34;60.00;;
76261;Laerm;65076;52.362;6.588;2023-11-18T20:39:57;58.17;39.07;71.10;;
76261;Laerm;65076;52.362;6.588;2023-11-18T20:47:37;47.69;39.04;62.56;;
76261;Laerm;65076;52.362;6.588;2023-11-18T20:52:46;53.91;39.26;69.68;;
76261;Laerm;65076;52.362;6.588;2023-11-18T20:57:52;55.62;40.11;66.40;;
76261;Laerm;65076;52.362;6.588;2023-11-18T21:02:55;53.17;39.49;72.31;;
76261;Laerm;65076;52.362;6.588;2023-11-18T21:08:02;51.16;38.38;66.48;;
76261;Laerm;65076;52.362;6.588;2023-11-18T21:13:02;58.99;40.30;76.95;;
76261;Laerm;65076;52.362;6.588;2023-11-18T21:15:38;54.25;38.53;71.92;;
76261;Laerm;65076;52.362;6.588;2023-11-18T21:25:55;55.60;38.41;69.74;;
76261;Laerm;65076;52.362;6.588;2023-11-18T21:31:00;52.74;40.94;62.90;;
76261;Laerm;65076;52.362;6.588;2023-11-18T21:38:29;51.61;39.62;65.07;;
76261;Laerm;65076;52.362;6.588;2023-11-18T21:41:08;52.50;39.44;64.60;;
76261;Laerm;65076;52.362;6.588;2023-11-18T21:48:46;51.18;38.28;64.33;;
76261;Laerm;65076;52.362;6.588;2023-11-18T21:51:19;49.29;39.29;62.23;;
76261;Laerm;65076;52.362;6.588;2023-11-18T21:53:52;51.73;39.77;62.57;;
76261;Laerm;65076;52.362;6.588;2023-11-18T22:04:02;51.02;39.34;62.50;;
76261;Laerm;65076;52.362;6.588;2023-11-18T22:11:36;51.32;37.82;70.90;;
76261;Laerm;65076;52.362;6.588;2023-11-18T22:16:37;47.69;39.18;58.77;;
76261;Laerm;65076;52.362;6.588;2023-11-18T22:19:14;52.11;37.97;66.49;;
76261;Laerm;65076;52.362;6.588;2023-11-18T22:26:47;50.77;38.29;62.75;;
76261;Laerm;65076;52.362;6.588;2023-11-18T22:34:23;52.27;38.69;63.98;;
76261;Laerm;65076;52.362;6.588;2023-11-18T22:39:27;51.23;38.53;62.76;;
76261;Laerm;65076;52.362;6.588;2023-11-18T22:47:05;48.49;37.38;62.00;;
76261;Laerm;65076;52.362;6.588;2023-11-18T22:54:39;57.39;37.33;75.20;;
76261;Laerm;65076;52.362;6.588;2023-11-18T23:02:13;53.95;37.23;66.35;;
76261;Laerm;65076;52.362;6.588;2023-11-18T23:09:55;51.84;37.08;63.19;;
76261;Laerm;65076;52.362;6.588;2023-11-18T23:15:00;46.31;36.61;61.52;;
76261;Laerm;65076;52.362;6.588;2023-11-18T23:20:01;47.41;36.03;61.04;;
76261;Laerm;65076;52.362;6.588;2023-11-18T23:22:44;47.89;36.66;64.85;;
76261;Laerm;65076;52.362;6.588;2023-11-18T23:30:30;51.96;36.81;66.08;;
76261;Laerm;65076;52.362;6.588;2023-11-18T23:38:08;54.36;36.95;66.48;;
76261;Laerm;65076;52.362;6.588;2023-11-18T23:45:47;53.63;39.37;64.57;;
76261;Laerm;65076;52.362;6.588;2023-11-18T23:50:54;39.01;36.65;54.89;;
76261;Laerm;65076;52.362;6.588;2023-11-18T23:53:26;49.97;36.38;66.20;;
76261;Laerm;65076;52.362;6.588;2023-11-18T23:56:03;54.38;37.33;68.23;;
